sensor_id;sensor_type;location;lat;lon;timestamp;pressure;altitude;pressure_sealevel;temperature;humidity
22580;BME280;11456;47.030;15.396;2022-12-07T00:01:29;97430.44;;;2.57;100.00
22580;BME280;11456;47.030;15.396;2022-12-07T00:03:57;97438.56;;;2.56;100.00
22580;BME280;11456;47.030;15.396;2022-12-07T00:06:30;97439.59;;;2.53;100.00
22580;BME280;11456;47.030;15.396;2022-12-07T00:08:57;97440.66;;;2.51;100.00
22580;BME280;11456;47.030;15.396;2022-12-07T00:11:24;97421.53;;;2.46;100.00
22580;BME280;11456;47.030;15.396;2022-12-07T00:13:51;97422.81;;;2.53;100.00
22580;BME280;11456;47.030;15.396;2022-12-07T00:16:19;97417.28;;;2.56;100.00
22580;BME280;11456;47.030;15.396;2022-12-07T00:18:46;97419.19;;;2.54;100.00
22580;BME280;11456;47.030;15.396;2022-12-07T00:21:14;97416.44;;;2.55;100.00
22580;BME280;11456;47.030;15.396;2022-12-07T00:23:41;97422.16;;;2.62;100.00
22580;BME280;11456;47.030;15.396;2022-12-07T00:26:09;97425.38;;;2.54;100.00
22580;BME280;11456;47.030;15.396;2022-12-07T00:28:35;97419.97;;;2.43;100.00
22580;BME280;11456;47.030;15.396;2022-12-07T00:31:12;97421.34;;;2.49;100.00
22580;BME280;11456;47.030;15.396;2022-12-07T00:33:38;97420.28;;;2.26;100.00
22580;BME280;11456;47.030;15.396;2022-12-07T00:36:06;97424.44;;;2.42;100.00
22580;BME280;11456;47.030;15.396;2022-12-07T00:38:33;97422.59;;;2.56;100.00
22580;BME280;11456;47.030;15.396;2022-12-07T00:41:02;97426.84;;;2.46;100.00
22580;BME280;11456;47.030;15.396;2022-12-07T00:43:29;97424.94;;;2.48;100.00
22580;BME280;11456;47.030;15.396;2022-12-07T00:45:56;97424.09;;;2.47;100.00
22580;BME280;11456;47.030;15.396;2022-12-07T00:48:22;97418.44;;;2.52;100.00
22580;BME280;11456;47.030;15.396;2022-12-07T00:50:49;97423.03;;;2.62;100.00
22580;BME280;11456;47.030;15.396;2022-12-07T00:53:16;97418.53;;;2.63;100.00
22580;BME280;11456;47.030;15.396;2022-12-07T00:55:43;97417.50;;;2.40;100.00
22580;BME280;11456;47.030;15.396;2022-12-07T00:58:09;97417.00;;;2.35;100.00
22580;BME280;11456;47.030;15.396;2022-12-07T01:00:37;97417.00;;;2.22;100.00
22580;BME280;11456;47.030;15.396;2022-12-07T01:03:05;97426.25;;;2.29;100.00
22580;BME280;11456;47.030;15.396;2022-12-07T01:05:32;97418.78;;;2.34;100.00
22580;BME280;11456;47.030;15.396;2022-12-07T01:07:59;97418.03;;;2.32;100.00
22580;BME280;11456;47.030;15.396;2022-12-07T01:10:26;97419.19;;;2.54;100.00
22580;BME280;11456;47.030;15.396;2022-12-07T01:12:52;97424.13;;;2.22;100.00
22580;BME280;11456;47.030;15.396;2022-12-07T01:15:19;97418.16;;;2.18;100.00
22580;BME280;11456;47.030;15.396;2022-12-07T01:17:45;97421.78;;;2.17;100.00
22580;BME280;11456;47.030;15.396;2022-12-07T01:20:12;97425.81;;;2.35;100.00
22580;BME280;11456;47.030;15.396;2022-12-07T01:22:39;97423.25;;;2.21;100.00
22580;BME280;11456;47.030;15.396;2022-12-07T01:25:07;97426.25;;;2.29;100.00
22580;BME280;11456;47.030;15.396;2022-12-07T01:27:34;97425.97;;;2.58;100.00
22580;BME280;11456;47.030;15.396;2022-12-07T01:30:01;97426.59;;;2.74;100.00
22580;BME280;11456;47.030;15.396;2022-12-07T01:32:30;97408.72;;;2.76;100.00
22580;BME280;11456;47.030;15.396;2022-12-07T01:34:56;97415.09;;;2.86;100.00
22580;BME280;11456;47.030;15.396;2022-12-07T01:37:23;97412.03;;;3.03;100.00
22580;BME280;11456;47.030;15.396;2022-12-07T01:39:50;97398.03;;;2.89;100.00
22580;BME280;11456;47.030;15.396;2022-12-07T01:42:17;97402.56;;;2.63;100.00
22580;BME280;11456;47.030;15.396;2022-12-07T01:47:29;97402.88;;;2.71;100.00
22580;BME280;11456;47.030;15.396;2022-12-07T01:49:55;97400.47;;;2.68;100.00
22580;BME280;11456;47.030;15.396;2022-12-07T01:52:26;97406.44;;;2.59;100.00
22580;BME280;11456;47.030;15.396;2022-12-07T01:54:54;97395.78;;;2.59;100.00
22580;BME280;11456;47.030;15.396;2022-12-07T01:57:23;97399.03;;;2.26;100.00
22580;BME280;11456;47.030;15.396;2022-12-07T01:59:50;97404.13;;;1.91;100.00
22580;BME280;11456;47.030;15.396;2022-12-07T02:02:18;97397.97;;;2.03;100.00
22580;BME280;11456;47.030;15.396;2022-12-07T02:04:46;97398.41;;;1.97;100.00
22580;BME280;11456;47.030;15.396;2022-12-07T02:07:12;97389.59;;;2.09;100.00
22580;BME280;11456;47.030;15.396;2022-12-07T02:09:39;97396.03;;;2.05;100.00
22580;BME280;11456;47.030;15.396;2022-12-07T02:12:05;97391.16;;;1.99;100.00
22580;BME280;11456;47.030;15.396;2022-12-07T02:14:32;97391.28;;;1.85;100.00
22580;BME280;11456;47.030;15.396;2022-12-07T02:17:02;97379.03;;;1.70;100.00
22580;BME280;11456;47.030;15.396;2022-12-07T02:20:17;97377.88;;;1.74;100.00
22580;BME280;11456;47.030;15.396;2022-12-07T02:27:43;97379.03;;;1.70;100.00
22580;BME280;11456;47.030;15.396;2022-12-07T02:30:12;97379.47;;;1.89;100.00
22580;BME280;11456;47.030;15.396;2022-12-07T02:32:44;97375.88;;;1.65;100.00
22580;BME280;11456;47.030;15.396;2022-12-07T02:35:15;97378.09;;;1.71;100.00
22580;BME280;11456;47.030;15.396;2022-12-07T02:40:31;97375.41;;;1.45;100.00
22580;BME280;11456;47.030;15.396;2022-12-07T02:43:04;97377.56;;;1.66;100.00
22580;BME280;11456;47.030;15.396;2022-12-07T02:45:34;97382.66;;;1.69;100.00
22580;BME280;11456;47.030;15.396;2022-12-07T02:48:01;97383.56;;;1.42;100.00
22580;BME280;11456;47.030;15.396;2022-12-07T02:50:28;97387.97;;;1.29;100.00
22580;BME280;11456;47.030;15.396;2022-12-07T02:52:55;97380.66;;;1.20;100.00
22580;BME280;11456;47.030;15.396;2022-12-07T02:55:23;97389.34;;;1.22;100.00
22580;BME280;11456;47.030;15.396;2022-12-07T02:58:02;97391.88;;;1.50;100.00
22580;BME280;11456;47.030;15.396;2022-12-07T03:00:34;97384.97;;;1.60;100.00
22580;BME280;11456;47.030;15.396;2022-12-07T03:03:12;97373.91;;;1.41;100.00
22580;BME280;11456;47.030;15.396;2022-12-07T03:05:54;97382.41;;;1.46;100.00
22580;BME280;11456;47.030;15.396;2022-12-07T03:11:14;97384.16;;;1.60;100.00
22580;BME280;11456;47.030;15.396;2022-12-07T03:16:18;97375.59;;;1.42;100.00
22580;BME280;11456;47.030;15.396;2022-12-07T03:18:48;97376.88;;;1.49;100.00
22580;BME280;11456;47.030;15.396;2022-12-07T03:21:17;97368.41;;;1.44;100.00
22580;BME280;11456;47.030;15.396;2022-12-07T03:23:46;97373.22;;;1.25;100.00
22580;BME280;11456;47.030;15.396;2022-12-07T03:26:14;97356.59;;;1.48;100.00
22580;BME280;11456;47.030;15.396;2022-12-07T03:28:45;97363.41;;;1.40;100.00
22580;BME280;11456;47.030;15.396;2022-12-07T03:34:07;97362.41;;;1.28;100.00
22580;BME280;11456;47.030;15.396;2022-12-07T03:36:31;97367.94;;;1.25;100.00
22580;BME280;11456;47.030;15.396;2022-12-07T03:39:12;97359.50;;;1.45;100.00
22580;BME280;11456;47.030;15.396;2022-12-07T03:41:41;97357.16;;;1.41;100.00
22580;BME280;11456;47.030;15.396;2022-12-07T03:44:10;97359.06;;;1.51;100.00
22580;BME280;11456;47.030;15.396;2022-12-07T03:46:44;97358.38;;;1.35;100.00
22580;BME280;11456;47.030;15.396;2022-12-07T03:49:18;97353.50;;;1.29;100.00
22580;BME280;11456;47.030;15.396;2022-12-07T03:54:31;97352.00;;;1.25;100.00
22580;BME280;11456;47.030;15.396;2022-12-07T03:57:01;97353.72;;;1.26;100.00
22580;BME280;11456;47.030;15.396;2022-12-07T03:59:28;97355.63;;;1.37;100.00
22580;BME280;11456;47.030;15.396;2022-12-07T04:01:56;97358.81;;;1.29;100.00
22580;BME280;11456;47.030;15.396;2022-12-07T04:04:23;97363.66;;;1.23;100.00
22580;BME280;11456;47.030;15.396;2022-12-07T04:06:50;97365.66;;;1.46;100.00
22580;BME280;11456;47.030;15.396;2022-12-07T04:09:17;97358.84;;;1.54;100.00
22580;BME280;11456;47.030;15.396;2022-12-07T04:11:44;97363.44;;;1.52;100.00
22580;BME280;11456;47.030;15.396;2022-12-07T04:14:10;97364.16;;;1.54;100.00
22580;BME280;11456;47.030;15.396;2022-12-07T04:16:50;97362.47;;;1.53;100.00
22580;BME280;11456;47.030;15.396;2022-12-07T04:19:17;97360.31;;;1.33;100.00
22580;BME280;11456;47.030;15.396;2022-12-07T04:21:44;97359.97;;;1.25;100.00
22580;BME280;11456;47.030;15.396;2022-12-07T04:24:11;97367.94;;;1.25;100.00
22580;BME280;11456;47.030;15.396;2022-12-07T04:26:38;97365.34;;;1.11;100.00
22580;BME280;11456;47.030;15.396;2022-12-07T04:29:05;97356.63;;;1.09;100.00
22580;BME280;11456;47.030;15.396;2022-12-07T04:31:33;97358.19;;;1.38;100.00
22580;BME280;11456;47.030;15.396;2022-12-07T04:34:00;97354.25;;;1.31;100.00
22580;BME280;11456;47.030;15.396;2022-12-07T04:36:27;97359.03;;;1.26;100.00
22580;BME280;11456;47.030;15.396;2022-12-07T04:38:53;97357.28;;;1.12;100.00
22580;BME280;11456;47.030;15.396;2022-12-07T04:41:21;97360.50;;;1.30;100.00
22580;BME280;11456;47.030;15.396;2022-12-07T04:43:54;97353.50;;;1.29;100.00
22580;BME280;11456;47.030;15.396;2022-12-07T04:46:21;97349.69;;;1.33;100.00
22580;BME280;11456;47.030;15.396;2022-12-07T04:48:48;97354.31;;;1.17;100.00
22580;BME280;11456;47.030;15.396;2022-12-07T04:51:15;97350.09;;;1.14;100.00
22580;BME280;11456;47.030;15.396;2022-12-07T04:53:44;97354.75;;;1.24;100.00
22580;BME280;11456;47.030;15.396;2022-12-07T04:56:11;97353.31;;;1.32;100.00
22580;BME280;11456;47.030;15.396;2022-12-07T04:58:37;97348.03;;;1.57;100.00
22580;BME280;11456;47.030;15.396;2022-12-07T05:01:05;97344.84;;;1.52;100.00
22580;BME280;11456;47.030;15.396;2022-12-07T05:03:32;97338.78;;;1.38;100.00
22580;BME280;11456;47.030;15.396;2022-12-07T05:05:58;97345.56;;;1.54;100.00
22580;BME280;11456;47.030;15.396;2022-12-07T05:08:25;97343.97;;;1.39;100.00
22580;BME280;11456;47.030;15.396;2022-12-07T05:10:51;97339.53;;;1.52;100.00
22580;BME280;11456;47.030;15.396;2022-12-07T05:13:18;97341.53;;;1.49;100.00
22580;BME280;11456;47.030;15.396;2022-12-07T05:15:44;97345.69;;;1.40;100.00
22580;BME280;11456;47.030;15.396;2022-12-07T05:18:10;97346.41;;;1.42;100.00
22580;BME280;11456;47.030;15.396;2022-12-07T05:20:39;97340.81;;;1.47;100.00
22580;BME280;11456;47.030;15.396;2022-12-07T05:23:08;97341.44;;;1.50;100.00
22580;BME280;11456;47.030;15.396;2022-12-07T05:25:34;97349.94;;;1.55;100.00
22580;BME280;11456;47.030;15.396;2022-12-07T05:28:01;97350.66;;;1.32;100.00
22580;BME280;11456;47.030;15.396;2022-12-07T05:30:27;97351.00;;;1.53;100.00
22580;BME280;11456;47.030;15.396;2022-12-07T05:32:54;97351.28;;;1.36;100.00
22580;BME280;11456;47.030;15.396;2022-12-07T05:35:21;97355.59;;;1.24;100.00
22580;BME280;11456;47.030;15.396;2022-12-07T05:37:47;97355.13;;;1.05;100.00
22580;BME280;11456;47.030;15.396;2022-12-07T05:40:14;97357.09;;;1.28;100.00
22580;BME280;11456;47.030;15.396;2022-12-07T05:42:41;97352.00;;;1.25;100.00
22580;BME280;11456;47.030;15.396;2022-12-07T05:45:08;97349.69;;;1.33;100.00
22580;BME280;11456;47.030;15.396;2022-12-07T05:47:34;97350.78;;;1.69;100.00
22580;BME280;11456;47.030;15.396;2022-12-07T05:50:01;97345.97;;;1.36;100.00
22580;BME280;11456;47.030;15.396;2022-12-07T05:52:28;97362.00;;;1.22;100.00
22580;BME280;11456;47.030;15.396;2022-12-07T05:54:54;97352.97;;;0.97;100.00
22580;BME280;11456;47.030;15.396;2022-12-07T05:57:21;97367.84;;;1.00;100.00
22580;BME280;11456;47.030;15.396;2022-12-07T05:59:47;97366.16;;;0.99;100.00
22580;BME280;11456;47.030;15.396;2022-12-07T06:02:15;97361.56;;;1.15;100.00
22580;BME280;11456;47.030;15.396;2022-12-07T06:04:45;97358.13;;;1.13;100.00
22580;BME280;11456;47.030;15.396;2022-12-07T06:07:12;97358.53;;;1.07;100.00
22580;BME280;11456;47.030;15.396;2022-12-07T06:09:39;97358.84;;;1.02;100.00
22580;BME280;11456;47.030;15.396;2022-12-07T06:12:06;97368.75;;;1.13;100.00
22580;BME280;11456;47.030;15.396;2022-12-07T06:14:51;97368.34;;;1.19;100.00
22580;BME280;11456;47.030;15.396;2022-12-07T06:17:18;97368.75;;;1.13;100.00
22580;BME280;11456;47.030;15.396;2022-12-07T06:19:44;97366.63;;;1.18;100.00
22580;BME280;11456;47.030;15.396;2022-12-07T06:22:11;97365.47;;;0.83;100.00
22580;BME280;11456;47.030;15.396;2022-12-07T06:24:38;97372.16;;;1.15;100.00
22580;BME280;11456;47.030;15.396;2022-12-07T06:27:04;97378.63;;;0.97;100.00
22580;BME280;11456;47.030;15.396;2022-12-07T06:29:31;97383.53;;;1.03;100.00
22580;BME280;11456;47.030;15.396;2022-12-07T06:31:58;97387.81;;;1.05;100.00
22580;BME280;11456;47.030;15.396;2022-12-07T06:34:25;97387.41;;;1.11;100.00
22580;BME280;11456;47.030;15.396;2022-12-07T06:36:52;97389.56;;;1.19;100.00
22580;BME280;11456;47.030;15.396;2022-12-07T06:39:24;97391.44;;;1.17;100.00
22580;BME280;11456;47.030;15.396;2022-12-07T06:41:50;97392.06;;;1.08;100.00
22580;BME280;11456;47.030;15.396;2022-12-07T06:44:20;97394.44;;;0.71;100.00
22580;BME280;11456;47.030;15.396;2022-12-07T06:46:48;97400.69;;;0.97;100.00
22580;BME280;11456;47.030;15.396;2022-12-07T06:49:15;97397.97;;;0.99;100.00
22580;BME280;11456;47.030;15.396;2022-12-07T06:51:41;97403.69;;;0.78;100.00
22580;BME280;11456;47.030;15.396;2022-12-07T06:54:08;97404.06;;;0.87;100.00
22580;BME280;11456;47.030;15.396;2022-12-07T06:56:35;97413.44;;;1.19;100.00
22580;BME280;11456;47.030;15.396;2022-12-07T06:59:02;97411.66;;;0.78;100.00
22580;BME280;11456;47.030;15.396;2022-12-07T07:01:28;97416.75;;;0.96;100.00
22580;BME280;11456;47.030;15.396;2022-12-07T07:03:55;97416.69;;;0.83;100.00
22580;BME280;11456;47.030;15.396;2022-12-07T07:06:21;97417.06;;;1.04;100.00
22580;BME280;11456;47.030;15.396;2022-12-07T07:08:48;97409.41;;;1.26;100.00
22580;BME280;11456;47.030;15.396;2022-12-07T07:11:15;97411.81;;;1.16;100.00
22580;BME280;11456;47.030;15.396;2022-12-07T07:13:41;97410.31;;;1.12;100.00
22580;BME280;11456;47.030;15.396;2022-12-07T07:16:08;97419.16;;;0.99;100.00
22580;BME280;11456;47.030;15.396;2022-12-07T07:18:34;97414.91;;;0.96;100.00
22580;BME280;11456;47.030;15.396;2022-12-07T07:21:01;97418.22;;;1.00;100.00
22580;BME280;11456;47.030;15.396;2022-12-07T07:23:27;97422.78;;;1.25;100.00
22580;BME280;11456;47.030;15.396;2022-12-07T07:25:54;97417.38;;;1.26;100.00
22580;BME280;11456;47.030;15.396;2022-12-07T07:28:21;97427.09;;;1.13;100.00
22580;BME280;11456;47.030;15.396;2022-12-07T07:30:47;97427.69;;;1.04;100.00
22580;BME280;11456;47.030;15.396;2022-12-07T07:33:14;97436.56;;;1.03;100.00
22580;BME280;11456;47.030;15.396;2022-12-07T07:35:41;97427.63;;;0.91;100.00
22580;BME280;11456;47.030;15.396;2022-12-07T07:38:07;97436.31;;;1.34;100.00
22580;BME280;11456;47.030;15.396;2022-12-07T07:40:34;97425.78;;;1.06;100.00
22580;BME280;11456;47.030;15.396;2022-12-07T07:43:01;97427.22;;;1.24;100.00
22580;BME280;11456;47.030;15.396;2022-12-07T07:45:28;97424.88;;;1.46;100.00
22580;BME280;11456;47.030;15.396;2022-12-07T07:47:54;97430.28;;;1.18;100.00
22580;BME280;11456;47.030;15.396;2022-12-07T07:50:21;97436.09;;;1.37;100.00
22580;BME280;11456;47.030;15.396;2022-12-07T07:52:48;97429.13;;;1.61;100.00
22580;BME280;11456;47.030;15.396;2022-12-07T07:55:14;97426.72;;;1.71;100.00
22580;BME280;11456;47.030;15.396;2022-12-07T07:57:41;97425.47;;;1.77;100.00
22580;BME280;11456;47.030;15.396;2022-12-07T08:00:09;97421.34;;;1.98;100.00
22580;BME280;11456;47.030;15.396;2022-12-07T08:02:39;97423.03;;;1.86;100.00
22580;BME280;11456;47.030;15.396;2022-12-07T08:05:05;97421.59;;;1.55;100.00
22580;BME280;11456;47.030;15.396;2022-12-07T08:07:32;97428.00;;;1.66;100.00
22580;BME280;11456;47.030;15.396;2022-12-07T08:09:59;97429.13;;;1.61;100.00
22580;BME280;11456;47.030;15.396;2022-12-07T08:12:26;97430.44;;;1.69;100.00
22580;BME280;11456;47.030;15.396;2022-12-07T08:14:53;97429.41;;;1.96;100.00
22580;BME280;11456;47.030;15.396;2022-12-07T08:17:19;97430.56;;;1.80;100.00
22580;BME280;11456;47.030;15.396;2022-12-07T08:19:46;97429.56;;;1.55;100.00
22580;BME280;11456;47.030;15.396;2022-12-07T08:22:12;97431.13;;;2.23;100.00
22580;BME280;11456;47.030;15.396;2022-12-07T08:24:38;97433.13;;;2.45;100.00
22580;BME280;11456;47.030;15.396;2022-12-07T08:27:05;97430.03;;;2.51;100.00
22580;BME280;11456;47.030;15.396;2022-12-07T08:29:32;97434.81;;;2.46;100.00
22580;BME280;11456;47.030;15.396;2022-12-07T08:31:58;97427.28;;;2.39;100.00
22580;BME280;11456;47.030;15.396;2022-12-07T08:34:33;97441.22;;;2.43;100.00
22580;BME280;11456;47.030;15.396;2022-12-07T08:37:00;97443.66;;;2.21;100.00
22580;BME280;11456;47.030;15.396;2022-12-07T08:39:26;97442.91;;;2.31;100.00
22580;BME280;11456;47.030;15.396;2022-12-07T08:41:58;97447.59;;;2.15;100.00
22580;BME280;11456;47.030;15.396;2022-12-07T08:44:24;97453.25;;;2.36;100.00
22580;BME280;11456;47.030;15.396;2022-12-07T08:46:56;97446.66;;;2.41;100.00
22580;BME280;11456;47.030;15.396;2022-12-07T08:49:27;97451.63;;;2.59;100.00
22580;BME280;11456;47.030;15.396;2022-12-07T08:51:56;97444.28;;;2.75;100.00
22580;BME280;11456;47.030;15.396;2022-12-07T08:54:23;97456.41;;;2.41;100.00
22580;BME280;11456;47.030;15.396;2022-12-07T08:56:50;97453.53;;;2.06;100.00
22580;BME280;11456;47.030;15.396;2022-12-07T08:59:24;97467.00;;;1.90;100.00
22580;BME280;11456;47.030;15.396;2022-12-07T09:01:52;97465.25;;;2.16;100.00
22580;BME280;11456;47.030;15.396;2022-12-07T09:04:18;97471.84;;;2.23;100.00
22580;BME280;11456;47.030;15.396;2022-12-07T09:06:46;97470.03;;;2.24;100.00
22580;BME280;11456;47.030;15.396;2022-12-07T09:09:13;97468.34;;;2.35;100.00
22580;BME280;11456;47.030;15.396;2022-12-07T09:11:40;97465.34;;;2.53;100.00
22580;BME280;11456;47.030;15.396;2022-12-07T09:14:06;97470.53;;;2.79;100.00
22580;BME280;11456;47.030;15.396;2022-12-07T09:16:33;97467.66;;;2.70;100.00
22580;BME280;11456;47.030;15.396;2022-12-07T09:18:59;97460.41;;;2.72;100.00
22580;BME280;11456;47.030;15.396;2022-12-07T09:21:26;97463.19;;;2.70;100.00
22580;BME280;11456;47.030;15.396;2022-12-07T09:23:52;97459.88;;;2.79;100.00
22580;BME280;11456;47.030;15.396;2022-12-07T09:26:19;97457.34;;;2.65;100.00
22580;BME280;11456;47.030;15.396;2022-12-07T09:28:45;97467.78;;;2.56;100.00
22580;BME280;11456;47.030;15.396;2022-12-07T09:31:12;97459.09;;;3.27;100.00
22580;BME280;11456;47.030;15.396;2022-12-07T09:33:58;97455.34;;;3.05;100.00
22580;BME280;11456;47.030;15.396;2022-12-07T09:36:25;97457.75;;;2.85;100.00
22580;BME280;11456;47.030;15.396;2022-12-07T09:38:52;97461.31;;;2.47;100.00
22580;BME280;11456;47.030;15.396;2022-12-07T09:41:18;97455.53;;;2.66;100.00
22580;BME280;11456;47.030;15.396;2022-12-07T09:43:45;97447.84;;;2.87;100.00
22580;BME280;11456;47.030;15.396;2022-12-07T09:46:13;97451.75;;;3.06;100.00
22580;BME280;11456;47.030;15.396;2022-12-07T09:48:42;97450.41;;;3.25;100.00
22580;BME280;11456;47.030;15.396;2022-12-07T09:51:19;97450.03;;;3.05;100.00
22580;BME280;11456;47.030;15.396;2022-12-07T09:53:50;97448.34;;;3.04;100.00
22580;BME280;11456;47.030;15.396;2022-12-07T09:56:17;97443.31;;;3.60;100.00
22580;BME280;11456;47.030;15.396;2022-12-07T09:58:45;97432.38;;;3.28;100.00
22580;BME280;11456;47.030;15.396;2022-12-07T10:01:13;97427.31;;;3.60;100.00
22580;BME280;11456;47.030;15.396;2022-12-07T10:03:42;97428.63;;;3.54;100.00
22580;BME280;11456;47.030;15.396;2022-12-07T10:06:11;97421.41;;;3.33;100.00
22580;BME280;11456;47.030;15.396;2022-12-07T10:08:38;97430.81;;;3.26;100.00
22580;BME280;11456;47.030;15.396;2022-12-07T10:11:07;97429.09;;;3.25;100.00
22580;BME280;11456;47.030;15.396;2022-12-07T10:13:41;97420.97;;;3.02;100.00
22580;BME280;11456;47.030;15.396;2022-12-07T10:16:27;97417.66;;;3.35;100.00
22580;BME280;11456;47.030;15.396;2022-12-07T10:18:57;97425.25;;;3.29;100.00
22580;BME280;11456;47.030;15.396;2022-12-07T10:21:47;97419.00;;;3.65;100.00
22580;BME280;11456;47.030;15.396;2022-12-07T10:24:25;97419.41;;;3.71;99.48
22580;BME280;11456;47.030;15.396;2022-12-07T10:26:51;97418.72;;;3.56;98.78
22580;BME280;11456;47.030;15.396;2022-12-07T10:31:45;97418.94;;;3.77;100.00
22580;BME280;11456;47.030;15.396;2022-12-07T10:39:40;97409.81;;;4.48;95.02
22580;BME280;11456;47.030;15.396;2022-12-07T10:42:08;97405.22;;;4.83;93.97
22580;BME280;11456;47.030;15.396;2022-12-07T10:44:41;97408.50;;;4.31;95.67
22580;BME280;11456;47.030;15.396;2022-12-07T11:00:16;97383.78;;;5.28;90.62
22580;BME280;11456;47.030;15.396;2022-12-07T11:08:05;97378.78;;;5.67;89.73
22580;BME280;11456;47.030;15.396;2022-12-07T11:18:27;97376.78;;;6.82;84.81
22580;BME280;11456;47.030;15.396;2022-12-07T11:36:54;97353.72;;;7.00;78.58
22580;BME280;11456;47.030;15.396;2022-12-07T11:41:48;97349.78;;;7.23;79.85
22580;BME280;11456;47.030;15.396;2022-12-07T11:49:21;97335.66;;;5.92;83.46
22580;BME280;11456;47.030;15.396;2022-12-07T11:51:51;97338.09;;;6.25;85.35
22580;BME280;11456;47.030;15.396;2022-12-07T11:54:29;97340.44;;;6.39;82.80
22580;BME280;11456;47.030;15.396;2022-12-07T11:56:59;97328.13;;;6.67;81.81
22580;BME280;11456;47.030;15.396;2022-12-07T11:59:31;97335.78;;;5.90;84.83
22580;BME280;11456;47.030;15.396;2022-12-07T12:07:03;97329.19;;;6.46;82.61
22580;BME280;11456;47.030;15.396;2022-12-07T12:09:57;97334.31;;;6.68;83.00
22580;BME280;11456;47.030;15.396;2022-12-07T12:15:28;97327.81;;;6.61;82.59
22580;BME280;11456;47.030;15.396;2022-12-07T12:18:05;97328.59;;;6.82;80.47
22580;BME280;11456;47.030;15.396;2022-12-07T12:20:39;97328.81;;;7.48;78.77
22580;BME280;11456;47.030;15.396;2022-12-07T12:23:12;97327.94;;;7.18;80.54
22580;BME280;11456;47.030;15.396;2022-12-07T12:28:18;97324.25;;;7.96;77.88
22580;BME280;11456;47.030;15.396;2022-12-07T12:30:46;97314.44;;;7.49;77.55
22580;BME280;11456;47.030;15.396;2022-12-07T12:33:30;97312.47;;;7.22;80.09
22580;BME280;11456;47.030;15.396;2022-12-07T12:36:20;97309.63;;;7.43;79.44
22580;BME280;11456;47.030;15.396;2022-12-07T12:46:58;97313.38;;;8.54;74.96
22580;BME280;11456;47.030;15.396;2022-12-07T12:51:52;97314.47;;;8.61;73.66
22580;BME280;11456;47.030;15.396;2022-12-07T13:01:44;97313.88;;;7.74;75.91
22580;BME280;11456;47.030;15.396;2022-12-07T13:06:58;97304.56;;;7.30;78.73
22580;BME280;11456;47.030;15.396;2022-12-07T13:09:25;97309.56;;;6.75;80.70
22580;BME280;11456;47.030;15.396;2022-12-07T13:11:57;97311.47;;;7.13;81.17
22580;BME280;11456;47.030;15.396;2022-12-07T13:17:54;97310.28;;;6.77;83.31
22580;BME280;11456;47.030;15.396;2022-12-07T13:20:02;97314.25;;;6.43;84.35
22580;BME280;11456;47.030;15.396;2022-12-07T13:25:19;97310.75;;;6.12;87.61
22580;BME280;11456;47.030;15.396;2022-12-07T13:27:48;97310.63;;;5.93;87.59
22580;BME280;11456;47.030;15.396;2022-12-07T13:30:19;97308.06;;;6.12;86.73
22580;BME280;11456;47.030;15.396;2022-12-07T13:32:53;97314.41;;;5.70;89.27
22580;BME280;11456;47.030;15.396;2022-12-07T13:38:00;97315.38;;;5.16;92.78
22580;BME280;11456;47.030;15.396;2022-12-07T13:40:27;97317.16;;;5.27;92.97
22580;BME280;11456;47.030;15.396;2022-12-07T13:43:12;97326.97;;;5.26;92.67
22580;BME280;11456;47.030;15.396;2022-12-07T13:45:41;97316.88;;;5.61;91.28
22580;BME280;11456;47.030;15.396;2022-12-07T13:48:22;97317.31;;;5.14;92.42
22580;BME280;11456;47.030;15.396;2022-12-07T13:50:54;97317.88;;;5.29;92.79
22580;BME280;11456;47.030;15.396;2022-12-07T13:53:21;97319.09;;;5.56;91.55
22580;BME280;11456;47.030;15.396;2022-12-07T13:55:48;97311.47;;;5.20;92.47
22580;BME280;11456;47.030;15.396;2022-12-07T13:58:19;97323.34;;;5.27;93.39
22580;BME280;11456;47.030;15.396;2022-12-07T14:00:46;97315.47;;;5.46;93.43
22580;BME280;11456;47.030;15.396;2022-12-07T14:05:40;97320.63;;;5.38;94.13
22580;BME280;11456;47.030;15.396;2022-12-07T14:15:49;97320.25;;;5.43;96.58
22580;BME280;11456;47.030;15.396;2022-12-07T14:18:36;97328.00;;;5.14;95.86
22580;BME280;11456;47.030;15.396;2022-12-07T14:21:03;97328.75;;;5.69;93.71
22580;BME280;11456;47.030;15.396;2022-12-07T14:23:30;97329.78;;;5.56;93.61
22580;BME280;11456;47.030;15.396;2022-12-07T14:28:52;97333.28;;;5.36;94.81
22580;BME280;11456;47.030;15.396;2022-12-07T14:31:21;97335.97;;;5.25;95.46
22580;BME280;11456;47.030;15.396;2022-12-07T14:33:58;97341.56;;;5.22;95.90
22580;BME280;11456;47.030;15.396;2022-12-07T14:36:25;97346.47;;;5.06;96.53
22580;BME280;11456;47.030;15.396;2022-12-07T14:38:51;97343.28;;;5.23;95.71
22580;BME280;11456;47.030;15.396;2022-12-07T14:41:20;97348.91;;;5.41;94.80
22580;BME280;11456;47.030;15.396;2022-12-07T14:44:13;97348.09;;;5.29;96.13
22580;BME280;11456;47.030;15.396;2022-12-07T14:46:50;97343.81;;;4.95;97.78
22580;BME280;11456;47.030;15.396;2022-12-07T14:49:37;97340.69;;;4.90;98.76
22580;BME280;11456;47.030;15.396;2022-12-07T14:52:03;97341.03;;;4.96;99.00
22580;BME280;11456;47.030;15.396;2022-12-07T14:54:50;97352.88;;;4.71;99.63
22580;BME280;11456;47.030;15.396;2022-12-07T14:57:17;97358.63;;;4.88;100.00
22580;BME280;11456;47.030;15.396;2022-12-07T14:59:44;97355.00;;;4.89;99.60
22580;BME280;11456;47.030;15.396;2022-12-07T15:02:12;97356.81;;;4.88;100.00
22580;BME280;11456;47.030;15.396;2022-12-07T15:04:39;97356.81;;;4.99;99.56
22580;BME280;11456;47.030;15.396;2022-12-07T15:07:06;97365.63;;;5.00;99.97
22580;BME280;11456;47.030;15.396;2022-12-07T15:09:35;97361.50;;;5.07;99.08
22580;BME280;11456;47.030;15.396;2022-12-07T15:12:01;97378.97;;;5.00;99.92
22580;BME280;11456;47.030;15.396;2022-12-07T15:14:29;97369.50;;;5.07;99.31